.
WxDataArchive / Data Records for 2015-06-23
2015-06-22 June 2015 2015-06-24

Data Records for Tuesday, 23 June 2015

Time	Temp	Chill	HIndex	Humid	Dewpt	 Wind 	HiWind	WindDir	Rain 	Barom
-----	----	-----	------	-----	-----	------	------	-------	-----	-----
00:00	79.8	79.8	83.8	80	73.1	1	3	248	0.00	29.734 
00:05	79.8	79.8	83.8	80	73.1	1	3	270	0.00	29.734 
00:10	79.8	79.8	83.8	80	73.1	1	2	270	0.00	29.734 
00:15	79.8	79.8	83.9	81	73.4	2	4	270	0.00	29.739 
00:20	79.8	79.8	83.9	81	73.4	1	4	292	0.00	29.739 
00:25	79.8	79.8	83.9	81	73.4	2	9	270	0.00	29.739 
00:30	79.8	79.8	83.9	81	73.4	1	5	270	0.00	29.714 
00:35	79.8	79.8	83.9	81	73.4	2	6	270	0.00	29.714 
00:40	79.8	79.8	83.9	81	73.4	1	5	248	0.00	29.714 
00:45	79.8	79.8	83.9	81	73.4	2	4	270	0.00	29.697 
00:50	79.8	79.8	83.9	81	73.4	2	5	248	0.00	29.697 
00:55	79.8	79.8	83.9	81	73.4	1	3	270	0.00	29.697 
01:00	79.9	79.9	84.1	81	73.5	1	5	270	0.00	29.712 
01:05	79.9	79.9	84.1	81	73.5	1	5	270	0.00	29.712 
01:10	79.9	79.9	84.1	81	73.5	2	5	270	0.00	29.712 
01:15	79.9	79.9	84.1	81	73.5	1	4	270	0.00	29.713 
01:20	79.8	79.8	84.1	82	73.8	2	5	248	0.00	29.713 
01:25	79.8	79.8	84.1	82	73.8	2	5	248	0.00	29.713 
01:30	79.8	79.8	84.1	82	73.8	1	4	248	0.00	29.724 
01:35	79.8	79.8	84.1	82	73.8	2	7	270	0.00	29.724 
01:40	79.8	79.8	84.1	82	73.8	2	5	270	0.00	29.724 
01:45	79.6	79.6	83.7	83	74.0	2	5	248	0.01	29.703 
01:50	79.4	79.4	83.4	84	74.1	1	4	292	0.00	29.703 
01:55	79.0	79.0	82.5	84	73.7	1	4	270	0.00	29.703 
02:00	79.0	79.0	82.6	85	74.1	1	5	248	0.00	29.695 
02:05	78.8	78.8	82.1	85	73.9	1	5	248	0.00	29.695 
02:10	78.8	78.8	82.1	85	73.9	1	3	248	0.00	29.695 
02:15	78.8	78.8	82.1	85	73.9	1	7	248	0.00	29.711 
02:20	79.0	79.0	82.5	84	73.7	0	2	270	0.00	29.711 
02:25	79.0	79.0	82.5	84	73.7	2	6	270	0.00	29.711 
02:30	79.2	79.2	82.9	84	73.9	1	4	270	0.00	29.713 
02:35	79.2	79.2	82.9	83	73.6	1	3	270	0.00	29.713 
02:40	79.4	79.4	83.3	83	73.8	1	3	270	0.00	29.713 
02:45	79.4	79.4	83.3	83	73.8	1	4	270	0.00	29.710 
02:50	79.6	79.6	83.6	82	73.6	1	5	270	0.00	29.710 
02:55	79.6	79.6	83.6	82	73.6	0	1	270	0.00	29.710 
03:00	79.4	79.4	83.2	82	73.4	1	3	270	0.00	29.731 
03:05	79.4	79.4	83.2	82	73.4	1	4	270	0.00	29.731 
03:10	79.6	79.6	83.5	81	73.2	2	6	270	0.00	29.731 
03:15	79.4	79.4	82.7	77	71.5	4	8	270	0.00	29.729 
03:20	79.6	79.6	82.6	73	70.2	3	7	292	0.00	29.729 
03:25	79.6	79.6	82.5	72	69.8	3	6	292	0.00	29.729 
03:30	79.4	79.4	81.9	69	68.3	4	8	292	0.00	29.746 
03:35	79.4	79.4	81.9	69	68.3	3	6	270	0.00	29.746 
03:40	79.2	79.2	81.6	69	68.1	3	7	270	0.00	29.746 
03:45	79.2	79.2	81.5	68	67.7	3	7	292	0.00	29.742 
03:50	79.0	79.0	81.3	68	67.5	2	7	270	0.00	29.742 
03:55	79.0	79.0	81.3	68	67.5	3	9	292	0.00	29.742 
04:00	78.8	78.8	81.1	69	67.7	2	7	270	0.00	29.736 
04:05	78.6	78.6	80.8	69	67.6	1	3	270	0.00	29.736 
04:10	78.5	78.5	80.7	70	67.9	2	4	270	0.00	29.736 
04:15	78.3	78.3	80.4	70	67.7	1	3	270	0.00	29.737 
04:20	78.1	78.1	80.2	71	67.9	1	3	270	0.00	29.737 
04:25	78.1	78.1	80.2	72	68.3	1	3	270	0.00	29.737 
04:30	77.9	77.9	79.9	72	68.1	1	3	270	0.00	29.733 
04:35	77.7	77.7	79.7	73	68.3	1	3	270	0.00	29.733 
04:40	77.7	77.7	79.7	73	68.3	2	4	270	0.00	29.733 
04:45	77.6	77.6	79.6	74	68.6	2	5	270	0.00	29.750 
04:50	77.4	77.4	79.3	74	68.4	1	4	270	0.00	29.750 
04:55	77.4	77.4	79.3	75	68.8	1	4	270	0.00	29.750 
05:00	77.2	77.2	79.0	75	68.6	1	5	270	0.00	29.763 
05:05	77.0	77.0	78.7	76	68.8	0	2	270	0.00	29.763 
05:10	76.8	76.8	78.4	76	68.6	0	3	270	0.00	29.763 
05:15	76.7	76.7	78.2	76	68.5	0	2	270	0.00	29.764 
05:20	76.7	76.7	78.3	75	68.2	0	3	270	0.00	29.764 
05:25	76.7	76.7	78.3	75	68.2	0	1	270	0.00	29.764 
05:30	76.5	76.5	78.0	75	68.0	0	2	270	0.00	29.764 
05:35	76.5	76.5	78.0	75	68.0	0	3	270	0.00	29.764 
05:40	76.3	76.3	77.7	75	67.8	0	2	270	0.00	29.764 
05:45	76.3	76.3	77.7	75	67.8	1	3	270	0.00	29.778 
05:50	76.3	76.3	77.7	75	67.8	1	5	270	0.00	29.778 
05:55	76.3	76.3	77.7	75	67.8	1	4	270	0.00	29.778 
06:00	76.3	76.3	77.7	75	67.8	2	3	270	0.00	29.786 
06:05	76.3	76.3	77.7	75	67.8	1	3	270	0.00	29.786 
06:10	76.1	76.1	77.5	75	67.6	1	3	270	0.00	29.786 
06:15	76.1	76.1	77.4	76	68.0	1	3	270	0.00	29.790 
06:20	76.0	76.0	77.3	76	67.9	1	3	270	0.00	29.790 
06:25	76.0	76.0	77.3	76	67.9	1	3	270	0.00	29.790 
06:30	76.0	76.0	77.3	76	67.9	1	3	270	0.00	29.795 
06:35	75.8	75.8	77.0	76	67.7	2	4	270	0.00	29.795 
06:40	75.8	75.8	77.0	77	68.1	1	4	270	0.00	29.795 
06:45	75.8	75.8	77.0	77	68.1	1	3	270	0.00	29.802 
06:50	75.8	75.8	77.0	77	68.1	1	2	270	0.00	29.802 
06:55	75.8	75.8	76.9	78	68.4	1	4	270	0.00	29.802 
07:00	75.6	75.6	76.6	78	68.2	2	4	270	0.00	29.812 
07:05	75.6	75.6	76.6	78	68.2	2	4	270	0.00	29.812 
07:10	75.6	75.6	76.6	78	68.2	2	5	270	0.00	29.812 
07:15	75.6	75.6	76.5	79	68.6	2	4	270	0.00	29.814 
07:20	75.6	75.6	76.5	79	68.6	1	3	270	0.00	29.814 
07:25	75.4	75.4	76.2	79	68.4	0	3	270	0.00	29.814 
07:30	75.4	75.4	76.2	79	68.4	1	3	270	0.00	29.813 
07:35	75.3	75.3	76.2	78	68.0	1	4	270	0.00	29.813 
07:40	75.1	75.1	76.2	76	67.0	3	7	338	0.00	29.813 
07:45	74.9	74.9	74.9	74	66.0	3	6	338	0.00	29.821 
07:50	74.4	74.4	74.4	67	62.7	2	7	315	0.00	29.821 
07:55	74.0	74.0	74.0	64	61.0	2	7	315	0.00	29.821 
08:00	73.9	73.9	73.9	64	60.9	1	4	338	0.00	29.835 
08:05	73.7	73.7	73.7	64	60.7	1	4	338	0.00	29.835 
08:10	73.7	73.7	73.7	65	61.2	2	5	315	0.00	29.835 
08:15	73.7	73.7	73.7	65	61.2	2	5	292	0.00	29.847 
08:20	73.7	73.7	73.7	65	61.2	1	4	292	0.00	29.847 
08:25	73.9	73.9	73.9	65	61.4	1	5	292	0.00	29.847 
08:30	73.7	73.7	73.7	65	61.2	2	9	292	0.00	29.857 
08:35	73.5	73.5	73.5	65	61.0	1	4	292	0.00	29.857 
08:40	73.5	73.5	73.5	65	61.0	1	3	292	0.00	29.857 
08:45	73.5	73.5	73.5	63	60.1	1	4	292	0.00	29.863 
08:50	73.5	73.5	73.5	64	60.6	1	4	292	0.00	29.863 
08:55	73.5	73.5	73.5	62	59.7	2	5	292	0.01	29.863 
09:00	73.5	73.5	73.5	62	59.7	2	5	292	0.00	29.877 
09:05	73.7	73.7	73.7	63	60.3	2	5	315	0.00	29.877 
09:10	73.3	73.3	73.3	57	57.1	3	5	292	0.00	29.877 
09:15	73.0	73.0	73.0	58	57.3	2	5	315	0.00	29.885 
09:20	72.8	72.8	72.8	60	58.1	2	5	315	0.00	29.885 
09:25	73.0	73.0	73.0	60	58.3	1	4	315	0.00	29.885 
09:30	73.3	73.3	73.3	61	59.0	1	5	315	0.00	29.891 
09:35	73.7	73.7	73.7	60	58.9	3	6	292	0.00	29.891 
09:40	73.3	73.3	73.3	59	58.1	3	6	270	0.00	29.891 
09:45	73.2	73.2	73.2	60	58.5	3	6	315	0.00	29.899 
09:50	72.7	72.7	72.7	60	58.0	3	5	315	0.00	29.899 
09:55	72.5	72.5	72.5	62	58.7	3	5	315	0.00	29.899 
10:00	72.7	72.7	72.7	58	57.1	3	6	315	0.00	29.904 
10:05	72.7	72.7	72.7	59	57.5	3	7	292	0.00	29.904 
10:10	72.7	72.7	72.7	60	58.0	2	5	315	0.00	29.904 
10:15	72.8	72.8	72.8	62	59.0	2	5	338	0.00	29.908 
10:20	73.2	73.2	73.2	59	58.0	2	5	292	0.00	29.908 
10:25	73.3	73.3	73.3	59	58.1	2	4	315	0.00	29.908 
10:30	73.5	73.5	73.5	60	58.7	2	6	315	0.00	29.912 
10:35	73.5	73.5	73.5	58	57.8	3	5	270	0.00	29.912 
10:40	73.5	73.5	73.5	58	57.8	3	8	292	0.00	29.912 
10:45	73.3	73.3	73.3	59	58.1	3	7	315	0.00	29.915 
10:50	73.3	73.3	73.3	58	57.6	3	7	270	0.00	29.915 
10:55	73.5	73.5	73.5	57	57.3	2	5	270	0.00	29.915 
11:00	73.7	73.7	73.7	58	58.0	1	5	292	0.00	29.919 
11:05	73.7	73.7	73.7	58	58.0	2	4	315	0.00	29.919 
11:10	73.9	73.9	73.9	55	56.7	3	6	270	0.00	29.919 
11:15	74.0	74.0	74.0	58	58.3	2	6	292	0.00	29.927 
11:20	74.4	74.4	74.4	57	58.2	2	4	292	0.00	29.927 
11:25	74.2	74.2	74.2	57	58.0	3	6	292	0.00	29.927 
11:30	74.0	74.0	74.0	55	56.8	2	4	270	0.00	29.930 
11:35	74.0	74.0	74.0	53	55.8	3	6	270	0.00	29.930 
11:40	74.0	74.0	74.0	54	56.3	2	5	338	0.00	29.930 
11:45	74.0	74.0	74.0	54	56.3	2	4	315	0.00	29.942 
11:50	74.0	74.0	74.0	56	57.3	2	5	292	0.00	29.942 
11:55	74.2	74.2	74.2	56	57.5	2	6	315	0.00	29.942 
12:00	74.6	74.6	74.6	58	58.8	0	3	338	0.00	29.944 
12:05	75.1	75.1	77.6	55	57.8	2	5	338	0.00	29.944 
12:10	75.4	75.4	77.8	54	57.6	2	4	315	0.00	29.944 
12:15	75.3	75.3	77.7	54	57.5	3	5	292	0.00	29.947 
12:20	75.3	75.3	77.7	55	58.0	2	6	270	0.00	29.947 
12:25	75.3	75.3	77.7	52	56.4	3	6	270	0.00	29.947 
12:30	75.1	75.1	77.7	50	55.2	4	7	270	0.00	29.954 
12:35	74.9	74.9	74.9	52	56.1	2	5	338	0.00	29.954 
12:40	75.3	75.3	77.7	50	55.4	2	5	292	0.00	29.954 
12:45	75.3	75.3	77.7	54	57.5	1	4	315	0.00	29.960 
12:50	75.6	75.6	77.9	52	56.7	1	5	315	0.00	29.960 
12:55	75.8	75.8	78.0	52	56.9	3	6	292	0.00	29.960 
13:00	75.8	75.8	78.0	51	56.4	2	5	270	0.00	29.959 
13:05	75.8	75.8	78.0	53	57.4	3	6	270	0.00	29.959 
13:10	75.8	75.8	78.0	51	56.4	3	6	270	0.00	29.959 
13:15	75.8	75.8	78.0	52	56.9	3	7	270	0.00	29.963 
13:20	75.8	75.8	78.0	53	57.4	3	6	270	0.00	29.963 
13:25	76.1	76.1	78.1	53	57.7	2	5	270	0.00	29.963 
13:30	76.3	76.3	78.2	52	57.4	3	6	338	0.00	29.963 
13:35	76.5	76.5	78.4	52	57.5	2	5	292	0.00	29.963 
13:40	76.5	76.5	78.3	51	57.0	3	6	315	0.00	29.963 
13:45	76.5	76.5	78.3	51	57.0	3	7	270	0.00	29.964 
13:50	76.8	76.8	78.5	52	57.8	2	5	248	0.00	29.964 
13:55	76.7	76.7	78.4	50	56.6	3	6	270	0.00	29.964 
14:00	76.7	76.7	78.4	49	56.1	3	7	270	0.00	29.966 
14:05	76.7	76.7	78.4	51	57.2	3	7	315	0.00	29.966 
14:10	77.0	77.0	78.6	49	56.4	2	7	292	0.00	29.966 
14:15	77.0	77.0	78.6	51	57.5	3	7	315	0.00	29.964 
14:20	77.0	77.0	78.6	50	56.9	3	6	292	0.00	29.964 
14:25	77.2	77.2	78.8	53	58.7	2	6	270	0.00	29.964 
14:30	77.2	77.2	78.7	50	57.1	3	6	315	0.00	29.970 
14:35	77.2	77.2	78.7	48	56.0	3	6	270	0.00	29.970 
14:40	77.4	77.4	78.7	46	55.0	3	6	270	0.00	29.970 
14:45	77.6	77.6	78.8	47	55.8	2	4	270	0.00	29.968 
14:50	77.9	77.9	79.2	50	57.7	2	6	292	0.00	29.968 
14:55	77.9	77.9	79.1	49	57.2	2	6	270	0.00	29.968 
15:00	77.9	77.9	79.1	49	57.2	3	6	270	0.00	29.964 
15:05	78.1	78.1	79.3	50	57.9	2	5	270	0.00	29.964 
15:10	78.1	78.1	79.3	50	57.9	2	5	292	0.00	29.964 
15:15	78.5	78.5	79.6	50	58.3	2	4	270	0.00	29.966 
15:20	78.3	78.3	79.3	48	57.0	3	9	270	0.00	29.966 
15:25	78.1	78.1	79.2	48	56.8	2	5	315	0.00	29.966 
15:30	78.1	78.1	79.2	48	56.8	3	6	338	0.00	29.973 
15:35	78.1	78.1	79.2	47	56.2	1	5	292	0.00	29.973 
15:40	78.5	78.5	79.5	49	57.7	3	5	292	0.00	29.973 
15:45	78.8	78.8	79.8	50	58.6	2	5	292	0.00	29.971 
15:50	78.6	78.6	79.4	45	55.5	3	7	315	0.00	29.971 
15:55	78.6	78.6	79.5	48	57.2	1	4	292	0.00	29.971 
16:00	78.5	78.5	79.5	48	57.2	1	5	315	0.00	29.971 
16:05	78.6	78.6	79.4	45	55.5	2	5	292	0.00	29.971 
16:10	78.8	78.8	79.6	46	56.2	2	6	292	0.00	29.971 
16:15	78.5	78.5	79.3	45	55.4	3	6	338	0.00	29.972 
16:20	78.3	78.3	79.3	47	56.4	3	7	315	0.00	29.972 
16:25	78.8	78.8	79.7	48	57.4	2	7	315	0.00	29.972 
16:30	78.8	78.8	79.6	46	56.2	3	9	292	0.00	29.973 
16:35	78.8	78.8	79.4	44	55.0	3	7	315	0.00	29.973 
16:40	78.6	78.6	79.4	45	55.5	3	5	292	0.00	29.973 
16:45	78.5	78.5	79.3	45	55.4	2	6	0	0.00	29.974 
16:50	78.5	78.5	79.3	45	55.4	2	6	315	0.00	29.974 
16:55	78.8	78.8	79.6	47	56.8	1	4	292	0.00	29.974 
17:00	78.8	78.8	79.6	46	56.2	2	5	315	0.00	29.973 
17:05	78.8	78.8	79.5	45	55.6	2	6	338	0.00	29.973 
17:10	78.8	78.8	79.5	45	55.6	2	5	338	0.00	29.973 
17:15	78.8	78.8	79.4	44	55.0	3	5	338	0.00	29.974 
17:20	78.8	78.8	79.5	45	55.6	2	5	315	0.00	29.974 
17:25	78.8	78.8	79.6	46	56.2	2	5	338	0.00	29.974 
17:30	78.6	78.6	79.2	42	53.6	3	5	292	0.00	29.975 
17:35	78.6	78.6	79.2	43	54.2	2	4	338	0.00	29.975 
17:40	78.6	78.6	79.1	41	52.9	3	6	292	0.00	29.975 
17:45	78.5	78.5	79.3	45	55.4	1	4	315	0.00	29.972 
17:50	78.5	78.5	79.4	46	56.0	1	4	315	0.00	29.972 
17:55	78.3	78.3	79.2	46	55.8	2	6	292	0.00	29.972 
18:00	78.3	78.3	79.2	46	55.8	2	6	292	0.00	29.976 
18:05	78.1	78.1	79.0	45	55.0	2	4	292	0.00	29.976 
18:10	78.1	78.1	79.0	45	55.0	1	3	292	0.00	29.976 
18:15	78.1	78.1	78.9	42	53.1	2	6	315	0.00	29.979 
18:20	77.7	77.7	78.7	42	52.8	2	5	292	0.00	29.979 
18:25	77.4	77.4	78.6	45	54.4	1	3	292	0.00	29.979 
18:30	77.4	77.4	78.7	46	55.0	2	7	338	0.00	29.986 
18:35	77.4	77.4	78.7	46	55.0	2	5	338	0.00	29.986 
18:40	77.6	77.6	78.8	46	55.2	2	5	292	0.00	29.986 
18:45	77.2	77.2	78.5	45	54.2	2	6	292	0.00	29.989 
18:50	77.2	77.2	78.5	45	54.2	2	5	270	0.00	29.989 
18:55	77.2	77.2	78.6	46	54.8	1	6	270	0.00	29.989 
19:00	77.2	77.2	78.5	44	53.6	2	4	338	0.00	29.993 
19:05	77.0	77.0	78.4	45	54.0	2	5	315	0.00	29.993 
19:10	76.8	76.8	78.3	43	52.6	2	5	292	0.00	29.993 
19:15	76.7	76.7	78.3	44	53.1	2	5	292	0.00	30.000 
19:20	76.5	76.5	78.2	45	53.6	2	5	315	0.00	30.000 
19:25	76.5	76.5	78.2	44	52.9	2	5	315	0.00	30.000 
19:30	76.5	76.5	78.2	46	54.2	1	3	292	0.00	30.012 
19:35	76.5	76.5	78.2	46	54.2	1	5	292	0.00	30.012 
19:40	76.3	76.3	78.1	46	54.0	2	5	292	0.00	30.012 
19:45	76.0	76.0	78.0	46	53.7	2	6	315	0.00	30.015 
19:50	75.8	75.8	77.9	46	53.5	1	4	270	0.00	30.015 
19:55	75.4	75.4	77.8	46	53.2	2	4	292	0.00	30.015 
20:00	75.3	75.3	77.7	46	53.1	1	4	292	0.00	30.020 
20:05	75.1	75.1	77.7	47	53.5	2	4	292	0.00	30.020 
20:10	74.9	74.9	74.9	47	53.3	2	7	292	0.00	30.020 
20:15	74.6	74.6	74.6	46	52.4	2	5	292	0.00	30.030 
20:20	74.4	74.4	74.4	48	53.4	2	5	292	0.00	30.030 
20:25	74.2	74.2	74.2	48	53.2	2	5	315	0.00	30.030 
20:30	73.9	73.9	73.9	48	53.0	2	4	292	0.00	30.041 
20:35	73.5	73.5	73.5	49	53.2	2	3	270	0.00	30.041 
20:40	73.2	73.2	73.2	50	53.4	1	3	292	0.00	30.041 
20:45	72.8	72.8	72.8	51	53.6	1	2	292	0.00	30.043 
20:50	72.5	72.5	72.5	52	53.9	1	2	292	0.00	30.043 
20:55	72.1	72.1	72.1	53	54.0	0	1	292	0.00	30.043 
21:00	71.8	71.8	71.8	53	53.7	0	2	292	0.00	30.042 
21:05	71.5	71.5	71.5	54	54.0	0	2	292	0.00	30.042 
21:10	71.3	71.3	71.3	54	53.8	1	3	292	0.00	30.042 
21:15	70.9	70.9	70.9	55	53.9	0	1	292	0.00	30.040 
21:20	70.8	70.8	70.8	55	53.8	0	3	292	0.00	30.040 
21:25	70.4	70.4	70.4	56	53.9	0	2	292	0.00	30.040 
21:30	70.1	70.1	70.1	56	53.7	0	1	292	0.00	30.034 
21:35	69.9	69.9	69.9	57	54.0	0	1	292	0.00	30.034 
21:40	69.6	69.6	69.6	57	53.7	0	1	292	0.00	30.034 
21:45	69.4	69.4	69.4	58	54.0	0	1	292	0.00	30.039 
21:50	69.3	69.3	69.3	58	53.9	0	1	292	0.00	30.039 
21:55	69.1	69.1	69.1	59	54.2	0	1	292	0.00	30.039 
22:00	68.9	68.9	68.9	59	54.0	0	0	---	0.00	30.050 
22:05	68.8	68.8	68.8	60	54.3	0	1	292	0.00	30.050 
22:10	68.6	68.6	68.6	60	54.1	0	0	---	0.00	30.050 
22:15	68.4	68.4	68.4	60	54.0	0	1	292	0.00	30.050 
22:20	68.3	68.3	68.3	61	54.3	0	1	292	0.00	30.050 
22:25	68.1	68.1	68.1	61	54.1	0	1	292	0.00	30.050 
22:30	68.1	68.1	68.1	61	54.1	0	0	---	0.00	30.049 
22:35	67.9	67.9	67.9	62	54.4	0	0	---	0.00	30.049 
22:40	67.6	67.6	67.6	62	54.1	0	0	---	0.00	30.049 
22:45	67.3	67.3	67.3	63	54.3	0	0	---	0.00	30.053 
22:50	67.1	67.1	67.1	63	54.1	0	0	---	0.00	30.053 
22:55	66.9	66.9	66.9	64	54.3	0	0	---	0.00	30.053 
23:00	66.8	66.8	66.8	65	54.6	0	0	---	0.00	30.058 
23:05	66.4	66.4	66.4	65	54.3	0	0	---	0.00	30.058 
23:10	66.3	66.3	66.3	65	54.2	0	0	---	0.00	30.058 
23:15	66.0	66.0	66.0	67	54.7	0	0	---	0.00	30.052 
23:20	65.5	65.5	65.5	68	54.7	0	0	---	0.00	30.052 
23:25	65.0	65.0	65.0	69	54.6	0	0	---	0.00	30.052 
23:30	64.7	64.7	64.7	69	54.3	0	0	---	0.00	30.044 
23:35	64.5	64.5	64.5	70	54.5	0	0	---	0.00	30.044 
23:40	64.2	64.2	64.2	70	54.2	0	0	---	0.00	30.044 
23:45	64.0	64.0	64.0	71	54.4	0	0	---	0.00	30.046 
23:50	63.9	63.9	63.9	72	54.7	0	0	---	0.00	30.046 
23:55	63.5	63.5	63.5	73	54.7	0	0	---	0.00	30.046 

CoCoRaHS
IN-AL-39
A2 Web Hosting
Creative Commons License
GoDaddy
search engine by freefind advanced

loaded 2018-11-17 23:17:25 • last modified 2010-11-18 10:43:29
Privacy PolicyDisclaimer
• wx.awcolley.com is powered by PmWiki v.2002016 •
• all content (unless otherwise noted) © 2018 A W Colley